Time;durP1;ratioP1;P1;durP2;ratioP2;P2;SDS_P1;SDS_P2;PMS_P1;PMS_P2;Temp;Humidity;BMP_temperature;BMP_pressure;BME280_temperature;BME280_humidity;BME280_pressure;Samples;Min_cycle;Max_cycle;Signal;HPM_P1;HPM_P2
2022/10/20 00:00:36;;;;;;;6.97;2.23;;;;;;;;;;5093881;28;20209;-69
2022/10/20 00:03:03;;;;;;;2.90;2.20;;;;;;;;;;5103593;28;20216;-69
2022/10/20 00:05:30;;;;;;;2.47;1.53;;;;;;;;;;5090552;28;20209;-70
2022/10/20 00:07:57;;;;;;;3.40;2.73;;;;;;;;;;5095260;28;20580;-68
2022/10/20 00:10:24;;;;;;;2.70;2.50;;;;;;;;;;5100066;28;20665;-69
2022/10/20 00:12:53;;;;;;;2.50;2.30;;;;;;;;;;5102519;28;20229;-69
2022/10/20 00:15:20;;;;;;;2.47;1.90;;;;;;;;;;5089797;28;20782;-69
2022/10/20 00:17:47;;;;;;;1.43;1.33;;;;;;;;;;5097008;28;20229;-69
2022/10/20 00:20:14;;;;;;;2.50;2.30;;;;;;;;;;5092160;28;20221;-69
2022/10/20 00:22:41;;;;;;;4.07;2.00;;;;;;;;;;5092055;28;20205;-69
2022/10/20 00:25:08;;;;;;;3.17;1.30;;;;;;;;;;5101773;28;20844;-69
2022/10/20 00:27:35;;;;;;;2.77;1.90;;;;;;;;;;5103926;28;20745;-68
2022/10/20 00:30:04;;;;;;;2.13;1.93;;;;;;;;;;5105598;28;20671;-69
2022/10/20 00:32:31;;;;;;;3.30;2.03;;;;;;;;;;5095169;28;20568;-69
2022/10/20 00:34:58;;;;;;;4.80;2.07;;;;;;;;;;5094192;28;20199;-69
2022/10/20 00:37:25;;;;;;;2.30;2.10;;;;;;;;;;5099198;28;20197;-68
2022/10/20 00:39:52;;;;;;;2.03;1.83;;;;;;;;;;5093679;28;20218;-68
2022/10/20 00:42:19;;;;;;;2.70;2.10;;;;;;;;;;5103920;28;20220;-68
2022/10/20 00:44:51;;;;;;;1.90;1.80;;;;;;;;;;5097953;28;20206;-68
2022/10/20 00:47:21;;;;;;;1.80;1.70;;;;;;;;;;5099268;28;20208;-68
2022/10/20 00:49:48;;;;;;;15.23;2.27;;;;;;;;;;5095751;28;20198;-69
2022/10/20 00:52:17;;;;;;;2.70;2.50;;;;;;;;;;5099512;28;20201;-69
2022/10/20 00:54:44;;;;;;;2.30;1.70;;;;;;;;;;5091755;28;20245;-69
2022/10/20 00:57:12;;;;;;;2.67;1.87;;;;;;;;;;5098925;28;20679;-69
2022/10/20 00:59:39;;;;;;;1.93;1.70;;;;;;;;;;5107557;28;20221;-70
2022/10/20 01:02:07;;;;;;;1.53;1.43;;;;;;;;;;5096826;28;20198;-68
2022/10/20 01:04:37;;;;;;;2.10;2.00;;;;;;;;;;5095728;28;20778;-69
2022/10/20 01:07:04;;;;;;;2.17;1.97;;;;;;;;;;5094288;28;20209;-69
2022/10/20 01:09:31;;;;;;;2.27;2.07;;;;;;;;;;5089540;28;20213;-69
2022/10/20 01:12:02;;;;;;;2.27;2.17;;;;;;;;;;5096497;28;20206;-69
2022/10/20 01:14:35;;;;;;;2.30;1.93;;;;;;;;;;5107452;28;20209;-69
2022/10/20 01:17:08;;;;;;;2.97;2.13;;;;;;;;;;5099024;28;20201;-69
2022/10/20 01:19:57;;;;;;;2.60;2.40;;;;;;;;;;5091578;28;20281;-69
2022/10/20 01:22:37;;;;;;;1.80;1.13;;;;;;;;;;5067373;28;20741;-70
2022/10/20 01:25:12;;;;;;;2.27;2.17;;;;;;;;;;5092007;28;20206;-69
2022/10/20 01:27:42;;;;;;;1.97;1.83;;;;;;;;;;5101292;28;20236;-70
2022/10/20 01:30:11;;;;;;;2.37;2.17;;;;;;;;;;5104088;28;20212;-70
2022/10/20 01:32:43;;;;;;;4.57;2.33;;;;;;;;;;5098448;28;20202;-69
2022/10/20 01:35:12;;;;;;;4.27;1.67;;;;;;;;;;5111594;28;20237;-70
2022/10/20 01:37:41;;;;;;;1.97;1.83;;;;;;;;;;5099185;28;20221;-69
2022/10/20 01:40:26;;;;;;;3.73;2.17;;;;;;;;;;5102340;28;20892;-69
2022/10/20 01:42:55;;;;;;;6.10;2.83;;;;;;;;;;5102054;28;20234;-69
2022/10/20 01:45:23;;;;;;;10.87;2.13;;;;;;;;;;5091744;28;20206;-70
2022/10/20 01:47:52;;;;;;;2.60;2.50;;;;;;;;;;5096590;28;20696;-70
2022/10/20 01:50:19;;;;;;;1.57;1.47;;;;;;;;;;5092728;28;20693;-69
2022/10/20 01:52:46;;;;;;;4.80;2.60;;;;;;;;;;5098112;28;20213;-69
2022/10/20 01:55:14;;;;;;;2.67;2.47;;;;;;;;;;5105215;28;20201;-70
2022/10/20 01:57:47;;;;;;;3.00;1.97;;;;;;;;;;5104629;28;20232;-70
2022/10/20 02:00:16;;;;;;;2.40;1.73;;;;;;;;;;5103419;28;20810;-69
2022/10/20 02:03:07;;;;;;;4.70;2.90;;;;;;;;;;5102518;28;20230;-69
2022/10/20 02:05:40;;;;;;;5.93;1.87;;;;;;;;;;5086935;28;20213;-70
2022/10/20 02:08:11;;;;;;;5.63;2.03;;;;;;;;;;5096783;28;20294;-69
2022/10/20 02:10:42;;;;;;;6.13;2.73;;;;;;;;;;5097771;28;20222;-70
2022/10/20 02:13:11;;;;;;;4.20;2.60;;;;;;;;;;5096883;28;20198;-69
2022/10/20 02:15:42;;;;;;;6.00;2.87;;;;;;;;;;5102440;28;20199;-70
2022/10/20 02:18:10;;;;;;;4.50;2.60;;;;;;;;;;5103244;28;20889;-69
2022/10/20 02:20:37;;;;;;;3.27;2.20;;;;;;;;;;5102494;28;20205;-69
2022/10/20 02:23:05;;;;;;;3.20;2.27;;;;;;;;;;5096671;28;20206;-69
2022/10/20 02:25:33;;;;;;;7.90;2.27;;;;;;;;;;5098647;28;20214;-70
2022/10/20 02:28:01;;;;;;;3.07;2.20;;;;;;;;;;5104375;28;20762;-70
2022/10/20 02:30:29;;;;;;;1.83;1.83;;;;;;;;;;5097373;28;20232;-70
2022/10/20 02:32:57;;;;;;;5.83;3.20;;;;;;;;;;5098597;28;20198;-70
2022/10/20 02:35:30;;;;;;;2.07;1.90;;;;;;;;;;5109629;28;20576;-69
2022/10/20 02:37:58;;;;;;;2.23;2.10;;;;;;;;;;5096695;28;20213;-70
2022/10/20 02:40:25;;;;;;;1.17;1.17;;;;;;;;;;5101340;28;20226;-70
2022/10/20 02:42:52;;;;;;;1.70;1.33;;;;;;;;;;5097741;28;20571;-69
2022/10/20 02:45:19;;;;;;;2.37;1.83;;;;;;;;;;5089131;28;20699;-70
2022/10/20 02:47:46;;;;;;;2.87;1.83;;;;;;;;;;5093283;28;20207;-69
2022/10/20 02:50:15;;;;;;;1.40;1.40;;;;;;;;;;5099779;28;21549;-70
2022/10/20 02:52:43;;;;;;;10.00;2.40;;;;;;;;;;5099245;28;20289;-70
2022/10/20 02:55:10;;;;;;;2.83;2.57;;;;;;;;;;5101430;28;20209;-69
2022/10/20 02:57:37;;;;;;;2.50;2.10;;;;;;;;;;5097866;28;20209;-70
2022/10/20 03:00:04;;;;;;;3.90;2.93;;;;;;;;;;5107455;28;20233;-69
2022/10/20 03:02:31;;;;;;;3.93;2.47;;;;;;;;;;5104118;28;20206;-70
2022/10/20 03:04:58;;;;;;;5.57;2.37;;;;;;;;;;5090457;28;20226;-70
2022/10/20 03:07:27;;;;;;;6.30;3.00;;;;;;;;;;5091141;28;20213;-69
2022/10/20 03:09:54;;;;;;;4.50;2.97;;;;;;;;;;5105947;28;20232;-69
2022/10/20 03:12:21;;;;;;;3.00;2.77;;;;;;;;;;5101345;28;20206;-69
2022/10/20 03:14:48;;;;;;;3.37;2.30;;;;;;;;;;5106028;28;20971;-69
2022/10/20 03:17:15;;;;;;;3.83;2.50;;;;;;;;;;5102385;28;20202;-69
2022/10/20 03:19:42;;;;;;;8.40;2.17;;;;;;;;;;5098743;28;20252;-69
2022/10/20 03:22:09;;;;;;;2.50;2.30;;;;;;;;;;5094876;28;20657;-69
2022/10/20 03:24:37;;;;;;;2.60;2.40;;;;;;;;;;5098718;28;20216;-69
2022/10/20 03:27:05;;;;;;;2.27;2.17;;;;;;;;;;5094941;28;20733;-68
2022/10/20 03:29:32;;;;;;;2.60;2.47;;;;;;;;;;5098818;28;20570;-70
2022/10/20 03:31:59;;;;;;;4.63;2.80;;;;;;;;;;5092916;28;20648;-69
2022/10/20 03:34:26;;;;;;;1.80;1.70;;;;;;;;;;5106141;28;20198;-69
2022/10/20 03:36:53;;;;;;;1.10;1.10;;;;;;;;;;5094865;28;20197;-70
2022/10/20 03:39:20;;;;;;;2.33;2.23;;;;;;;;;;5099318;28;20229;-69
2022/10/20 03:41:48;;;;;;;3.13;2.40;;;;;;;;;;5100485;28;20236;-69
2022/10/20 03:44:15;;;;;;;2.60;2.40;;;;;;;;;;5088913;28;20210;-69
2022/10/20 03:46:42;;;;;;;3.73;2.30;;;;;;;;;;5086832;28;20203;-69
2022/10/20 03:49:09;;;;;;;1.23;1.23;;;;;;;;;;5094690;28;20194;-70
2022/10/20 03:51:39;;;;;;;1.93;1.80;;;;;;;;;;5089363;28;20648;-69
2022/10/20 03:54:06;;;;;;;6.43;2.13;;;;;;;;;;5103772;28;20220;-70
2022/10/20 03:56:34;;;;;;;2.30;2.00;;;;;;;;;;5101880;28;20209;-71
2022/10/20 03:59:02;;;;;;;1.17;1.17;;;;;;;;;;5090708;28;20226;-69
2022/10/20 04:01:30;;;;;;;2.73;2.53;;;;;;;;;;5100394;28;20210;-69
2022/10/20 04:03:57;;;;;;;2.23;1.87;;;;;;;;;;5094363;28;20744;-69
2022/10/20 04:06:24;;;;;;;6.17;2.17;;;;;;;;;;5096515;28;20204;-69
2022/10/20 04:08:51;;;;;;;1.03;1.03;;;;;;;;;;5100822;28;20202;-69
2022/10/20 04:11:18;;;;;;;0.87;0.87;;;;;;;;;;5093704;28;20202;-70
2022/10/20 04:13:45;;;;;;;1.73;1.63;;;;;;;;;;5100258;28;20210;-68
2022/10/20 04:16:14;;;;;;;4.37;1.97;;;;;;;;;;5095617;28;20218;-69
2022/10/20 04:18:41;;;;;;;2.93;2.43;;;;;;;;;;5089599;28;20206;-70
2022/10/20 04:21:08;;;;;;;1.70;1.60;;;;;;;;;;5090732;28;20716;-70
2022/10/20 04:23:35;;;;;;;2.53;1.73;;;;;;;;;;5096818;28;20201;-69
2022/10/20 04:26:08;;;;;;;1.30;1.30;;;;;;;;;;5099755;28;20205;-69
2022/10/20 04:28:35;;;;;;;5.00;2.20;;;;;;;;;;5105125;28;20255;-69
2022/10/20 04:31:02;;;;;;;2.80;1.27;;;;;;;;;;5108129;28;20205;-70
2022/10/20 04:33:30;;;;;;;2.97;2.10;;;;;;;;;;5099717;28;20250;-70
2022/10/20 04:35:58;;;;;;;3.23;2.30;;;;;;;;;;5092685;28;20208;-70
2022/10/20 04:38:28;;;;;;;3.97;2.40;;;;;;;;;;5093672;28;20198;-69
2022/10/20 04:40:56;;;;;;;2.40;2.30;;;;;;;;;;5087788;28;20234;-70
2022/10/20 04:43:23;;;;;;;2.83;2.63;;;;;;;;;;5103330;28;20575;-69
2022/10/20 04:45:52;;;;;;;7.13;2.57;;;;;;;;;;5101119;28;20194;-69
2022/10/20 04:48:20;;;;;;;2.27;2.13;;;;;;;;;;5106743;28;20663;-70
2022/10/20 04:50:48;;;;;;;1.80;1.70;;;;;;;;;;5101795;28;20202;-69
2022/10/20 04:53:15;;;;;;;2.00;1.90;;;;;;;;;;5106285;28;20197;-69
2022/10/20 04:56:04;;;;;;;2.33;2.13;;;;;;;;;;5105144;28;20232;-68
2022/10/20 04:58:31;;;;;;;4.40;2.60;;;;;;;;;;5089491;28;20198;-69
2022/10/20 05:01:01;;;;;;;4.80;2.77;;;;;;;;;;5096084;28;20225;-69
2022/10/20 05:03:28;;;;;;;3.70;2.57;;;;;;;;;;5095653;28;20217;-69
2022/10/20 05:06:07;;;;;;;3.50;2.07;;;;;;;;;;5094482;28;20202;-69
2022/10/20 05:08:34;;;;;;;1.53;1.53;;;;;;;;;;5111342;28;20208;-69
2022/10/20 05:11:02;;;;;;;1.47;1.47;;;;;;;;;;5103125;28;20198;-69
2022/10/20 05:13:29;;;;;;;2.13;2.03;;;;;;;;;;5110244;28;20667;-70
2022/10/20 05:15:56;;;;;;;2.50;2.20;;;;;;;;;;5096629;28;20734;-70
2022/10/20 05:18:23;;;;;;;4.37;3.00;;;;;;;;;;5099183;28;20577;-72
2022/10/20 05:20:50;;;;;;;1.70;1.60;;;;;;;;;;5111448;28;20240;-70
2022/10/20 05:23:18;;;;;;;1.90;1.20;;;;;;;;;;5101654;28;20214;-72
2022/10/20 05:25:45;;;;;;;8.83;2.40;;;;;;;;;;5099348;28;20201;-73
2022/10/20 05:28:12;;;;;;;6.13;2.20;;;;;;;;;;5099397;28;20597;-74
2022/10/20 05:30:39;;;;;;;2.00;1.93;;;;;;;;;;5109003;28;20660;-70
2022/10/20 05:33:06;;;;;;;3.57;2.20;;;;;;;;;;5103119;28;20214;-71
2022/10/20 05:35:33;;;;;;;3.77;2.60;;;;;;;;;;5095923;28;20210;-70
2022/10/20 05:38:01;;;;;;;0.70;0.70;;;;;;;;;;5107272;28;20213;-70
2022/10/20 05:40:29;;;;;;;2.47;1.87;;;;;;;;;;5089210;28;20226;-69
2022/10/20 05:42:57;;;;;;;2.77;2.13;;;;;;;;;;5090932;28;20220;-69
2022/10/20 05:45:24;;;;;;;2.57;2.37;;;;;;;;;;5108420;28;20417;-69
2022/10/20 05:47:51;;;;;;;3.50;3.20;;;;;;;;;;5108968;28;20991;-73
2022/10/20 05:50:18;;;;;;;2.23;2.13;;;;;;;;;;5109330;28;20675;-69
2022/10/20 05:52:45;;;;;;;2.77;2.57;;;;;;;;;;5090611;28;20209;-69
2022/10/20 05:55:12;;;;;;;2.53;2.43;;;;;;;;;;5107065;28;20210;-69
2022/10/20 05:57:41;;;;;;;3.23;2.43;;;;;;;;;;5106645;28;20194;-69
2022/10/20 06:00:08;;;;;;;2.40;2.20;;;;;;;;;;5089933;28;20226;-69
2022/10/20 06:02:36;;;;;;;2.33;2.13;;;;;;;;;;5091159;28;20210;-69
2022/10/20 06:05:03;;;;;;;5.33;3.10;;;;;;;;;;5090032;28;20237;-69
2022/10/20 06:07:30;;;;;;;2.63;2.43;;;;;;;;;;5090671;28;20263;-71
2022/10/20 06:09:57;;;;;;;3.53;3.23;;;;;;;;;;5110463;28;20222;-70
2022/10/20 06:12:24;;;;;;;2.20;2.03;;;;;;;;;;5109629;28;20209;-70
2022/10/20 06:14:53;;;;;;;2.83;2.63;;;;;;;;;;5108877;28;20289;-70
2022/10/20 06:17:20;;;;;;;3.53;3.23;;;;;;;;;;5109674;28;20205;-70
2022/10/20 06:19:47;;;;;;;4.47;3.30;;;;;;;;;;5089728;28;20253;-70
2022/10/20 06:22:14;;;;;;;3.17;2.63;;;;;;;;;;5101331;28;20217;-70
2022/10/20 06:24:41;;;;;;;2.90;2.73;;;;;;;;;;5110065;28;20238;-69
2022/10/20 06:27:08;;;;;;;2.90;2.70;;;;;;;;;;5103013;28;20245;-69
2022/10/20 06:29:35;;;;;;;3.60;3.30;;;;;;;;;;5089743;28;20206;-70
2022/10/20 06:32:04;;;;;;;3.37;3.20;;;;;;;;;;5090835;28;20217;-70
2022/10/20 06:34:31;;;;;;;4.07;2.87;;;;;;;;;;5095968;28;20875;-72
2022/10/20 06:36:58;;;;;;;2.43;2.23;;;;;;;;;;5097924;28;20221;-71
2022/10/20 06:39:25;;;;;;;3.30;3.03;;;;;;;;;;5099362;28;20202;-71
2022/10/20 06:41:54;;;;;;;2.60;2.40;;;;;;;;;;5099890;28;20199;-70
2022/10/20 06:44:22;;;;;;;3.97;3.33;;;;;;;;;;5097271;28;20198;-71
2022/10/20 06:46:51;;;;;;;4.30;3.27;;;;;;;;;;5098635;28;20207;-69
2022/10/20 06:49:19;;;;;;;3.33;2.93;;;;;;;;;;5097142;28;20578;-70
2022/10/20 06:51:46;;;;;;;5.90;3.57;;;;;;;;;;5098108;28;20222;-70
2022/10/20 06:54:13;;;;;;;3.30;2.90;;;;;;;;;;5101686;28;20213;-71
2022/10/20 06:56:41;;;;;;;2.57;2.43;;;;;;;;;;5097333;28;20249;-70
2022/10/20 06:59:08;;;;;;;4.30;3.90;;;;;;;;;;5097980;28;20198;-71
2022/10/20 07:01:36;;;;;;;3.23;3.00;;;;;;;;;;5098507;28;20214;-70
2022/10/20 07:04:04;;;;;;;6.17;3.87;;;;;;;;;;5097333;28;20667;-70
2022/10/20 07:06:34;;;;;;;4.70;3.57;;;;;;;;;;5096018;28;20253;-70
2022/10/20 07:09:02;;;;;;;4.27;3.90;;;;;;;;;;5094286;28;20206;-70
2022/10/20 07:11:30;;;;;;;3.43;2.37;;;;;;;;;;5097032;28;20320;-70
2022/10/20 07:13:58;;;;;;;2.93;2.63;;;;;;;;;;5098709;28;20302;-70
2022/10/20 07:16:27;;;;;;;4.67;4.03;;;;;;;;;;5095251;28;20201;-70
2022/10/20 07:18:54;;;;;;;5.10;4.20;;;;;;;;;;5098770;28;20206;-70
2022/10/20 07:21:22;;;;;;;5.37;4.07;;;;;;;;;;5095899;28;20222;-70
2022/10/20 07:23:51;;;;;;;5.50;4.73;;;;;;;;;;5098125;28;20206;-70
2022/10/20 07:26:19;;;;;;;4.87;3.50;;;;;;;;;;5096470;28;20198;-69
2022/10/20 07:28:47;;;;;;;7.60;5.17;;;;;;;;;;5097972;28;20202;-70
2022/10/20 07:31:15;;;;;;;3.77;3.47;;;;;;;;;;5098578;28;20629;-70
2022/10/20 07:33:43;;;;;;;6.63;5.37;;;;;;;;;;5103024;28;20671;-70
2022/10/20 07:36:14;;;;;;;6.30;4.77;;;;;;;;;;5106892;28;20201;-70
2022/10/20 07:38:41;;;;;;;5.73;4.80;;;;;;;;;;5108135;28;20209;-70
2022/10/20 07:41:10;;;;;;;9.03;5.17;;;;;;;;;;5106184;28;20543;-70
2022/10/20 07:43:37;;;;;;;4.97;4.07;;;;;;;;;;5094183;28;20245;-69
2022/10/20 07:46:05;;;;;;;6.00;4.17;;;;;;;;;;5090970;28;20202;-68
2022/10/20 07:48:32;;;;;;;7.40;5.33;;;;;;;;;;5094275;28;20585;-67
2022/10/20 07:54:05;;;;;;;9.37;5.47;;;;;;;;;;5090416;28;20208;-70
2022/10/20 07:56:34;;;;;;;6.10;5.13;;;;;;;;;;5108288;28;20221;-70
2022/10/20 07:59:01;;;;;;;7.60;4.83;;;;;;;;;;5098329;28;20206;-69
2022/10/20 08:01:28;;;;;;;6.80;4.80;;;;;;;;;;5087803;28;20206;-70
2022/10/20 08:03:55;;;;;;;11.47;5.60;;;;;;;;;;5098844;28;20279;-64
2022/10/20 08:06:22;;;;;;;7.33;5.43;;;;;;;;;;5100014;28;20837;-67
2022/10/20 08:08:49;;;;;;;7.17;5.40;;;;;;;;;;5102978;28;20258;-67
2022/10/20 08:11:16;;;;;;;8.73;5.13;;;;;;;;;;5106024;28;20768;-67
2022/10/20 08:13:45;;;;;;;8.67;4.70;;;;;;;;;;5094707;28;20206;-64
2022/10/20 08:16:12;;;;;;;10.53;5.03;;;;;;;;;;5093243;28;20275;-67
2022/10/20 08:18:41;;;;;;;10.13;5.30;;;;;;;;;;5103915;28;20275;-66
2022/10/20 08:21:09;;;;;;;9.17;5.83;;;;;;;;;;5102403;28;20198;-66
2022/10/20 08:23:38;;;;;;;8.10;4.93;;;;;;;;;;5092163;28;20260;-66
2022/10/20 08:26:05;;;;;;;7.00;5.47;;;;;;;;;;5097243;28;20207;-66
2022/10/20 08:28:32;;;;;;;9.77;5.70;;;;;;;;;;5105753;28;20245;-66
2022/10/20 08:31:01;;;;;;;11.27;5.03;;;;;;;;;;5106317;28;20234;-67
2022/10/20 08:33:28;;;;;;;9.93;4.93;;;;;;;;;;5106733;28;20213;-66
2022/10/20 08:35:55;;;;;;;9.33;4.87;;;;;;;;;;5091929;28;20278;-67
2022/10/20 08:38:22;;;;;;;6.90;5.20;;;;;;;;;;5103398;28;20235;-67
2022/10/20 08:40:49;;;;;;;7.00;4.80;;;;;;;;;;5101486;28;20194;-67
2022/10/20 08:43:17;;;;;;;6.10;5.00;;;;;;;;;;5099397;28;20347;-67
2022/10/20 08:45:44;;;;;;;9.83;5.67;;;;;;;;;;5086560;28;20206;-67
2022/10/20 08:48:15;;;;;;;5.83;4.67;;;;;;;;;;5096160;28;20573;-68
2022/10/20 08:50:44;;;;;;;9.80;5.30;;;;;;;;;;5097903;28;20225;-68
2022/10/20 08:53:12;;;;;;;8.90;3.33;;;;;;;;;;5089135;28;20808;-68
2022/10/20 08:55:39;;;;;;;6.33;4.43;;;;;;;;;;5090961;28;20270;-68
2022/10/20 08:58:08;;;;;;;8.73;5.20;;;;;;;;;;5096913;28;20737;-68
2022/10/20 09:00:37;;;;;;;6.90;5.17;;;;;;;;;;5098404;28;20197;-66
2022/10/20 09:03:21;;;;;;;9.83;5.27;;;;;;;;;;5092113;28;20210;-66
2022/10/20 09:05:51;;;;;;;10.03;5.53;;;;;;;;;;5084783;28;20210;-66
2022/10/20 09:08:20;;;;;;;9.60;4.80;;;;;;;;;;5103808;28;20670;-66
2022/10/20 09:10:49;;;;;;;8.80;4.77;;;;;;;;;;5090410;28;20237;-66
2022/10/20 09:13:19;;;;;;;8.03;5.07;;;;;;;;;;5103173;28;20691;-65
2022/10/20 09:15:47;;;;;;;9.10;5.20;;;;;;;;;;5093429;28;20722;-66
2022/10/20 09:18:14;;;;;;;9.00;5.20;;;;;;;;;;5094573;28;20210;-66
2022/10/20 09:20:44;;;;;;;5.60;4.20;;;;;;;;;;5101859;28;20206;-66
2022/10/20 09:23:14;;;;;;;6.63;4.43;;;;;;;;;;5105801;28;20257;-66
2022/10/20 09:25:42;;;;;;;7.33;5.30;;;;;;;;;;5089273;28;20206;-66
2022/10/20 09:28:17;;;;;;;6.93;4.43;;;;;;;;;;5096728;28;20233;-67
2022/10/20 09:30:45;;;;;;;8.53;5.03;;;;;;;;;;5098214;28;20659;-67
2022/10/20 09:33:20;;;;;;;8.57;4.93;;;;;;;;;;5090223;28;20285;-66
2022/10/20 09:35:48;;;;;;;9.70;5.57;;;;;;;;;;5090076;28;20214;-66
2022/10/20 09:38:21;;;;;;;9.13;5.60;;;;;;;;;;5086873;28;20305;-66
2022/10/20 09:40:55;;;;;;;6.17;4.17;;;;;;;;;;5089459;28;20230;-67
2022/10/20 09:43:22;;;;;;;7.80;4.90;;;;;;;;;;5101011;28;20210;-66
2022/10/20 09:45:52;;;;;;;5.70;4.10;;;;;;;;;;5088438;28;20202;-66
2022/10/20 09:48:22;;;;;;;7.00;5.03;;;;;;;;;;5089095;28;20234;-67
2022/10/20 09:50:51;;;;;;;6.40;5.23;;;;;;;;;;5092219;28;20946;-67
2022/10/20 09:53:21;;;;;;;5.43;4.50;;;;;;;;;;5103648;28;20213;-67
2022/10/20 09:55:49;;;;;;;9.17;5.90;;;;;;;;;;5108944;28;20213;-67
2022/10/20 09:58:28;;;;;;;9.17;6.10;;;;;;;;;;5107886;28;20206;-67
2022/10/20 10:00:56;;;;;;;8.17;5.20;;;;;;;;;;5095740;28;20201;-66
2022/10/20 10:03:24;;;;;;;11.13;5.70;;;;;;;;;;5090386;28;20230;-67
2022/10/20 10:05:51;;;;;;;6.40;5.03;;;;;;;;;;5089017;28;20206;-66
2022/10/20 10:08:21;;;;;;;8.53;5.03;;;;;;;;;;5092762;28;20202;-67
2022/10/20 10:10:58;;;;;;;7.70;5.50;;;;;;;;;;5089576;28;20218;-67
2022/10/20 10:13:26;;;;;;;5.77;5.07;;;;;;;;;;5103813;28;20655;-67
2022/10/20 10:16:01;;;;;;;10.47;5.63;;;;;;;;;;5101184;28;20202;-67
2022/10/20 10:18:28;;;;;;;8.27;5.37;;;;;;;;;;5098888;28;20201;-67
2022/10/20 10:20:59;;;;;;;10.87;5.93;;;;;;;;;;5088876;28;20279;-66
2022/10/20 10:23:28;;;;;;;9.63;5.63;;;;;;;;;;5102249;28;20662;-66
2022/10/20 10:25:55;;;;;;;6.90;5.30;;;;;;;;;;5108636;28;20616;-66
2022/10/20 10:28:35;;;;;;;7.83;5.40;;;;;;;;;;5105700;28;20400;-66
2022/10/20 10:31:10;;;;;;;5.43;4.87;;;;;;;;;;5108088;28;20221;-66
2022/10/20 10:33:37;;;;;;;7.97;5.37;;;;;;;;;;5107179;28;20236;-67
2022/10/20 10:36:07;;;;;;;8.43;5.27;;;;;;;;;;5098357;28;20210;-66
2022/10/20 10:38:36;;;;;;;7.03;4.57;;;;;;;;;;5090810;28;20252;-66
2022/10/20 10:41:07;;;;;;;10.90;5.60;;;;;;;;;;5087758;28;20207;-66
2022/10/20 10:43:36;;;;;;;8.37;5.20;;;;;;;;;;5088145;28;20217;-66
2022/10/20 10:46:06;;;;;;;6.73;4.77;;;;;;;;;;5087349;28;20209;-66
2022/10/20 10:48:44;;;;;;;10.27;5.40;;;;;;;;;;5099729;28;20209;-66
2022/10/20 10:51:16;;;;;;;10.40;5.50;;;;;;;;;;5098807;28;20228;-67
2022/10/20 10:53:50;;;;;;;7.93;4.33;;;;;;;;;;5102428;28;20205;-65
2022/10/20 10:56:24;;;;;;;7.17;4.87;;;;;;;;;;5088140;28;20209;-64
2022/10/20 10:58:55;;;;;;;5.47;4.17;;;;;;;;;;5086136;28;20203;-66
2022/10/20 11:01:34;;;;;;;8.83;5.60;;;;;;;;;;5093549;28;20664;-67
2022/10/20 11:04:08;;;;;;;7.13;5.23;;;;;;;;;;5088002;28;20249;-66
2022/10/20 11:06:41;;;;;;;8.80;5.77;;;;;;;;;;5099923;28;20208;-69
2022/10/20 11:09:20;;;;;;;9.90;5.50;;;;;;;;;;5106790;28;20213;-71
2022/10/20 11:11:54;;;;;;;7.57;4.87;;;;;;;;;;5098269;28;20233;-67
2022/10/20 11:14:28;;;;;;;8.30;5.13;;;;;;;;;;5101976;28;20202;-66
2022/10/20 11:17:03;;;;;;;8.73;5.00;;;;;;;;;;5107446;28;20213;-66
2022/10/20 11:19:38;;;;;;;8.90;5.13;;;;;;;;;;5098631;28;20213;-67
2022/10/20 11:22:09;;;;;;;8.17;4.83;;;;;;;;;;5090910;28;20209;-66
2022/10/20 11:24:44;;;;;;;13.73;5.00;;;;;;;;;;5092446;28;20833;-65
2022/10/20 11:27:14;;;;;;;9.40;5.78;;;;;;;;;;5107336;28;20232;-67
2022/10/20 11:29:43;;;;;;;8.02;5.85;;;;;;;;;;5100668;28;20229;-67
2022/10/20 11:32:17;;;;;;;6.32;4.60;;;;;;;;;;5106385;28;20602;-66
2022/10/20 11:34:47;;;;;;;11.50;4.88;;;;;;;;;;5096039;28;20233;-66
2022/10/20 11:37:18;;;;;;;9.13;5.07;;;;;;;;;;5089397;28;20578;-66
2022/10/20 11:39:49;;;;;;;6.40;4.80;;;;;;;;;;5091846;28;20625;-66
2022/10/20 11:42:22;;;;;;;5.25;4.68;;;;;;;;;;5097003;28;20202;-66
2022/10/20 11:44:50;;;;;;;10.90;4.53;;;;;;;;;;5097090;28;20206;-66
2022/10/20 11:47:18;;;;;;;9.52;4.95;;;;;;;;;;5087177;28;20198;-66
2022/10/20 11:49:46;;;;;;;5.90;4.72;;;;;;;;;;5086374;28;20288;-66
2022/10/20 11:52:33;;;;;;;5.50;4.93;;;;;;;;;;5093127;28;20592;-66
2022/10/20 11:55:09;;;;;;;15.77;5.70;;;;;;;;;;5083127;28;20195;-66
2022/10/20 11:57:41;;;;;;;5.68;4.60;;;;;;;;;;5087586;28;20214;-67
2022/10/20 12:00:15;;;;;;;6.95;4.28;;;;;;;;;;5087730;28;20665;-66
2022/10/20 12:03:10;;;;;;;6.10;5.22;;;;;;;;;;5092521;28;20216;-66
2022/10/20 12:05:46;;;;;;;7.80;4.77;;;;;;;;;;5088531;28;20688;-66
2022/10/20 12:08:20;;;;;;;8.20;5.15;;;;;;;;;;5107655;28;20213;-67
2022/10/20 12:10:54;;;;;;;13.07;6.30;;;;;;;;;;5086621;28;20704;-67
2022/10/20 12:13:27;;;;;;;7.10;4.50;;;;;;;;;;5092946;28;20933;-67
2022/10/20 12:15:54;;;;;;;6.67;4.60;;;;;;;;;;5107921;28;20213;-66
2022/10/20 12:18:26;;;;;;;8.95;5.22;;;;;;;;;;5087955;28;20211;-66
2022/10/20 12:20:55;;;;;;;8.88;5.05;;;;;;;;;;5087197;28;20234;-66
2022/10/20 12:23:40;;;;;;;7.77;5.43;;;;;;;;;;5088653;28;20289;-67
2022/10/20 12:26:22;;;;;;;7.30;5.32;;;;;;;;;;5104325;28;20208;-66
2022/10/20 12:28:51;;;;;;;8.83;5.17;;;;;;;;;;5092137;28;20222;-66
2022/10/20 12:31:18;;;;;;;9.10;5.53;;;;;;;;;;5087799;28;20206;-67
2022/10/20 12:34:00;;;;;;;9.13;5.05;;;;;;;;;;5102676;28;20574;-66
2022/10/20 12:36:33;;;;;;;7.07;4.87;;;;;;;;;;5106519;28;20213;-66
2022/10/20 12:39:17;;;;;;;10.53;5.20;;;;;;;;;;5095908;28;20202;-66
2022/10/20 12:41:54;;;;;;;9.02;5.15;;;;;;;;;;5098284;28;20228;-66
2022/10/20 12:44:23;;;;;;;7.43;5.53;;;;;;;;;;5096821;28;20672;-66
2022/10/20 12:46:53;;;;;;;5.73;5.10;;;;;;;;;;5100906;28;20679;-66
2022/10/20 12:49:23;;;;;;;6.63;5.53;;;;;;;;;;5090417;28;20212;-66
2022/10/20 12:51:52;;;;;;;7.00;5.13;;;;;;;;;;5088566;28;20253;-66
2022/10/20 12:54:21;;;;;;;6.28;4.88;;;;;;;;;;5087472;28;20848;-66
2022/10/20 12:56:49;;;;;;;4.77;4.20;;;;;;;;;;5097835;28;20217;-64
2022/10/20 12:59:38;;;;;;;8.07;5.77;;;;;;;;;;5102352;28;20643;-71
2022/10/20 13:02:24;;;;;;;6.03;4.73;;;;;;;;;;5096857;28;20206;-66
2022/10/20 13:04:55;;;;;;;6.03;5.03;;;;;;;;;;5094518;28;20249;-67
2022/10/20 13:07:37;;;;;;;7.00;5.17;;;;;;;;;;5091584;28;20206;-66
2022/10/20 13:10:19;;;;;;;9.57;5.50;;;;;;;;;;5086250;28;20205;-66
2022/10/20 13:12:46;;;;;;;8.75;4.55;;;;;;;;;;5088094;28;20229;-66
2022/10/20 13:15:18;;;;;;;8.73;5.13;;;;;;;;;;5095218;28;20259;-66
2022/10/20 13:17:51;;;;;;;7.60;5.43;;;;;;;;;;5088301;28;20218;-66
2022/10/20 13:20:23;;;;;;;5.65;5.05;;;;;;;;;;5106441;28;20223;-66
2022/10/20 13:22:53;;;;;;;9.02;5.13;;;;;;;;;;5089620;28;20206;-66
2022/10/20 13:25:30;;;;;;;9.10;5.57;;;;;;;;;;5090277;28;20578;-67
2022/10/20 13:28:04;;;;;;;8.48;5.15;;;;;;;;;;5104717;28;20240;-68
2022/10/20 13:30:33;;;;;;;7.25;5.05;;;;;;;;;;5110579;28;20216;-67
2022/10/20 13:33:03;;;;;;;6.05;4.22;;;;;;;;;;5100831;28;20724;-67
2022/10/20 13:35:33;;;;;;;7.90;6.00;;;;;;;;;;5104139;28;20201;-66
2022/10/20 13:38:03;;;;;;;8.73;4.55;;;;;;;;;;5095050;28;20205;-67
2022/10/20 13:40:38;;;;;;;6.30;4.80;;;;;;;;;;5095572;28;20224;-67
2022/10/20 13:43:09;;;;;;;9.97;5.73;;;;;;;;;;5102188;28;20250;-71
2022/10/20 13:45:46;;;;;;;6.97;5.87;;;;;;;;;;5095441;28;20202;-74
2022/10/20 13:48:19;;;;;;;7.07;6.10;;;;;;;;;;5095929;28;20206;-70
2022/10/20 13:50:49;;;;;;;4.65;3.90;;;;;;;;;;5099304;28;20206;-73
2022/10/20 13:53:21;;;;;;;8.20;5.57;;;;;;;;;;5090384;28;20340;-72
2022/10/20 13:55:59;;;;;;;6.43;5.25;;;;;;;;;;5101568;28;20209;-72
2022/10/20 13:58:27;;;;;;;5.80;5.27;;;;;;;;;;5093683;28;20233;-73
2022/10/20 14:01:01;;;;;;;11.87;5.53;;;;;;;;;;5104214;28;20198;-72
2022/10/20 14:03:28;;;;;;;7.40;5.50;;;;;;;;;;5105267;28;20319;-73
2022/10/20 14:05:55;;;;;;;7.10;5.53;;;;;;;;;;5088424;28;20206;-73
2022/10/20 14:08:22;;;;;;;8.83;5.67;;;;;;;;;;5104323;28;20689;-74
2022/10/20 14:10:51;;;;;;;8.83;6.17;;;;;;;;;;5104264;28;20607;-73
2022/10/20 14:13:19;;;;;;;12.43;5.23;;;;;;;;;;5099701;28;20586;-73
2022/10/20 14:15:48;;;;;;;6.67;5.80;;;;;;;;;;5093706;28;20207;-73
2022/10/20 14:18:22;;;;;;;6.50;5.00;;;;;;;;;;5093753;28;20233;-73
2022/10/20 14:20:56;;;;;;;7.90;5.70;;;;;;;;;;5092335;28;20440;-74
2022/10/20 14:23:23;;;;;;;10.30;6.60;;;;;;;;;;5096808;28;20202;-73
2022/10/20 14:25:51;;;;;;;8.87;5.77;;;;;;;;;;5097139;28;20259;-73
2022/10/20 14:28:19;;;;;;;10.13;6.20;;;;;;;;;;5103605;28;20238;-73
2022/10/20 14:30:47;;;;;;;8.90;6.60;;;;;;;;;;5091910;28;20888;-73
2022/10/20 14:33:15;;;;;;;9.93;6.20;;;;;;;;;;5092890;28;20275;-73
2022/10/20 14:35:44;;;;;;;7.67;5.87;;;;;;;;;;5091574;28;20230;-73
2022/10/20 14:38:17;;;;;;;10.73;6.57;;;;;;;;;;5099554;28;20205;-73
2022/10/20 14:40:49;;;;;;;7.57;5.60;;;;;;;;;;5104148;28;20207;-74
2022/10/20 14:43:18;;;;;;;10.17;6.10;;;;;;;;;;5100036;28;20607;-75
2022/10/20 14:45:52;;;;;;;9.00;6.53;;;;;;;;;;5108764;28;20236;-74
2022/10/20 14:48:19;;;;;;;7.70;6.10;;;;;;;;;;5108995;28;20213;-71
2022/10/20 14:50:48;;;;;;;7.83;5.87;;;;;;;;;;5103657;28;20226;-72
2022/10/20 14:53:19;;;;;;;10.50;6.13;;;;;;;;;;5089487;28;20218;-71
2022/10/20 14:55:46;;;;;;;9.80;5.30;;;;;;;;;;5100660;28;20660;-74
2022/10/20 14:58:36;;;;;;;10.27;5.97;;;;;;;;;;5095432;28;20216;-73
2022/10/20 15:01:18;;;;;;;8.37;6.07;;;;;;;;;;5090007;28;20210;-72